Time;durP1;ratioP1;P1;durP2;ratioP2;P2;SDS_P1;SDS_P2;PMS_P1;PMS_P2;Temp;Humidity;BMP_temperature;BMP_pressure;BME280_temperature;BME280_humidity;BME280_pressure;Samples;Min_cycle;Max_cycle;Signal;HPM_P1;HPM_P2
2023/09/29 00:00:57;;;;;;;8.32;5.68;;;;;;;16.69;100.00;101603.94;4849710;29;20061;-78
2023/09/29 00:03:22;;;;;;;7.25;5.78;;;;;;;16.70;100.00;101599.34;4821575;29;20033;-77
2023/09/29 00:05:49;;;;;;;7.72;5.40;;;;;;;16.67;100.00;101611.53;4821065;29;20038;-77
2023/09/29 00:08:17;;;;;;;9.20;5.65;;;;;;;16.64;100.00;101595.88;4837296;29;20037;-74
2023/09/29 00:10:45;;;;;;;7.30;6.35;;;;;;;16.61;100.00;101597.28;4834070;29;20041;-75
2023/09/29 00:13:11;;;;;;;7.63;5.68;;;;;;;16.62;100.00;101598.06;4846962;29;20467;-76
2023/09/29 00:15:38;;;;;;;7.85;6.00;;;;;;;16.60;100.00;101589.44;4845841;29;20038;-75
2023/09/29 00:18:08;;;;;;;8.10;5.88;;;;;;;16.60;100.00;101592.97;4823887;29;20041;-74
2023/09/29 00:20:35;;;;;;;7.93;5.82;;;;;;;16.57;100.00;101587.31;4826484;29;20064;-73
2023/09/29 00:23:03;;;;;;;10.50;7.00;;;;;;;16.56;100.00;101594.63;4835877;29;20098;-75
2023/09/29 00:25:29;;;;;;;7.65;6.22;;;;;;;16.55;100.00;101594.91;4843337;29;20054;-75
2023/09/29 00:27:57;;;;;;;7.68;5.85;;;;;;;16.55;100.00;101595.72;4834876;29;20044;-77
2023/09/29 00:30:24;;;;;;;8.65;5.40;;;;;;;16.53;100.00;101584.41;4829719;29;20073;-75
2023/09/29 00:32:51;;;;;;;9.27;5.85;;;;;;;16.55;100.00;101593.00;4820215;29;20576;-76
2023/09/29 00:35:29;;;;;;;7.95;5.65;;;;;;;16.55;100.00;101593.00;4816554;29;20046;-76
2023/09/29 00:37:57;;;;;;;7.57;6.22;;;;;;;16.53;100.00;101584.41;4832859;29;20411;-77
2023/09/29 00:40:23;;;;;;;8.73;6.47;;;;;;;16.50;100.00;101579.56;4819737;29;20128;-75
2023/09/29 00:42:49;;;;;;;8.48;6.20;;;;;;;16.52;100.00;101580.06;4829498;29;20092;-76
2023/09/29 00:45:26;;;;;;;8.10;6.28;;;;;;;16.51;100.00;101575.75;4848329;29;20076;-76
2023/09/29 00:47:56;;;;;;;10.23;7.32;;;;;;;16.54;100.00;101586.00;4818302;29;20029;-77
2023/09/29 00:50:26;;;;;;;8.93;6.85;;;;;;;16.52;100.00;101573.84;4831031;29;20037;-78
2023/09/29 00:52:58;;;;;;;9.55;6.38;;;;;;;16.54;100.00;101575.19;4844359;29;20045;-76
2023/09/29 00:55:26;;;;;;;8.57;6.88;;;;;;;16.55;100.00;101570.59;4850987;29;20046;-75
2023/09/29 00:57:58;;;;;;;12.25;7.78;;;;;;;16.52;100.00;101576.56;4834989;29;20035;-77
2023/09/29 01:02:54;;;;;;;9.20;7.32;;;;;;;16.51;100.00;101556.81;4827566;29;20038;-74
2023/09/29 01:05:23;;;;;;;7.15;6.03;;;;;;;16.54;100.00;101550.84;4832274;29;20049;-75
2023/09/29 01:07:51;;;;;;;8.57;6.35;;;;;;;16.53;100.00;101554.66;4836250;29;20052;-74
2023/09/29 01:10:18;;;;;;;8.07;5.22;;;;;;;16.54;100.00;101550.06;4834352;29;20041;-78
2023/09/29 01:12:44;;;;;;;7.35;6.05;;;;;;;16.54;100.00;101553.56;4832005;29;20045;-77
2023/09/29 01:15:14;;;;;;;9.98;5.78;;;;;;;16.54;100.00;101553.56;4827051;29;20560;-75
2023/09/29 01:17:42;;;;;;;8.20;7.10;;;;;;;16.53;100.00;101549.25;4823879;29;20048;-76
2023/09/29 01:20:17;;;;;;;9.10;7.03;;;;;;;16.50;100.00;101552.50;4835370;29;20041;-74
2023/09/29 01:22:47;;;;;;;9.48;7.53;;;;;;;16.48;100.00;101551.19;4837534;29;20045;-76
2023/09/29 01:25:15;;;;;;;9.40;7.30;;;;;;;16.47;100.00;101552.31;4843202;29;20048;-75
2023/09/29 01:27:41;;;;;;;10.02;8.02;;;;;;;16.50;100.00;101557.13;4818679;29;20042;-75
2023/09/29 01:30:07;;;;;;;8.55;7.00;;;;;;;16.49;100.00;101556.31;4817190;29;20488;-75
2023/09/29 01:32:35;;;;;;;8.02;7.13;;;;;;;16.48;100.00;101557.41;4836666;29;20096;-76
2023/09/29 01:35:03;;;;;;;9.82;7.13;;;;;;;16.50;100.00;101559.81;4836580;29;20058;-75
2023/09/29 01:37:29;;;;;;;9.57;7.00;;;;;;;16.46;100.00;101550.66;4830544;29;20140;-75
2023/09/29 01:39:57;;;;;;;9.38;6.90;;;;;;;16.46;100.00;101551.50;4854676;29;20053;-75
2023/09/29 01:42:24;;;;;;;9.30;5.97;;;;;;;16.46;100.00;101545.25;4832833;29;20037;-76
2023/09/29 01:44:51;;;;;;;8.57;6.72;;;;;;;16.47;100.00;101557.72;4837073;29;20088;-75
2023/09/29 01:47:17;;;;;;;6.85;5.18;;;;;;;16.47;100.00;101545.00;4816971;29;20042;-77
2023/09/29 01:49:43;;;;;;;;;;;;;;;16.46;100.00;101546.09;4825024;29;20041;-77
2023/09/29 01:52:08;;;;;;;11.27;6.50;;;;;;;16.43;100.00;101552.06;4840086;29;20774;-76
2023/09/29 01:54:35;;;;;;;9.90;6.68;;;;;;;16.41;100.00;101554.25;4834854;29;20132;-75
2023/09/29 01:57:02;;;;;;;9.20;5.93;;;;;;;16.39;100.00;101556.41;4830406;29;20420;-74
2023/09/29 01:59:28;;;;;;;;;;;;;;;16.40;100.00;101563.47;4834200;29;20048;-75
2023/09/29 02:01:54;;;;;;;7.53;6.30;;;;;;;16.38;100.00;101563.72;4822869;29;19920;-76
2023/09/29 02:04:21;;;;;;;9.63;7.28;;;;;;;16.37;100.00;101553.22;4821241;29;20069;-77
2023/09/29 02:06:49;;;;;;;;;;;;;;;16.37;100.00;101553.22;4811133;29;20128;-75
2023/09/29 02:09:14;;;;;;;10.18;6.43;;;;;;;16.35;100.00;101550.00;4839278;29;20642;-75
2023/09/29 02:11:42;;;;;;;;;;;;;;;16.35;100.00;101552.72;4832347;29;20048;-75
2023/09/29 02:14:07;;;;;;;9.48;7.63;;;;;;;16.33;100.00;101553.00;4852052;29;20413;-75
2023/09/29 02:16:38;;;;;;;8.05;6.75;;;;;;;16.34;100.00;101543.00;4834965;29;20209;-75
2023/09/29 02:19:04;;;;;;;;;;;;;;;16.33;100.00;101542.19;4837748;29;20489;-75
2023/09/29 02:21:32;;;;;;;8.02;7.13;;;;;;;16.28;100.00;101538.72;4851060;29;19919;-74
2023/09/29 02:24:01;;;;;;;11.10;7.63;;;;;;;16.29;100.00;101534.94;4855501;29;20037;-75
2023/09/29 02:26:29;;;;;;;8.32;7.45;;;;;;;16.28;100.00;101527.94;4843773;29;20037;-74
2023/09/29 02:28:55;;;;;;;9.13;8.10;;;;;;;16.26;100.00;101530.13;4835353;29;20072;-73
2023/09/29 02:31:22;;;;;;;9.40;7.57;;;;;;;16.26;100.00;101530.13;4852998;29;20369;-73
2023/09/29 02:33:50;;;;;;;9.70;8.70;;;;;;;16.25;100.00;101517.66;4847984;29;20038;-75
2023/09/29 02:36:16;;;;;;;10.27;7.47;;;;;;;16.25;100.00;101520.38;4837922;29;20064;-75
2023/09/29 02:38:42;;;;;;;;;;;;;;;16.23;100.00;101514.47;4830335;29;20531;-77
2023/09/29 02:41:09;;;;;;;9.60;7.25;;;;;;;16.20;100.00;101518.56;4832459;29;19989;-78
2023/09/29 02:43:35;;;;;;;9.80;8.48;;;;;;;16.20;100.00;101521.25;4833903;29;20045;-74
2023/09/29 02:46:01;;;;;;;9.57;7.75;;;;;;;16.19;100.00;101519.66;4853750;29;20662;-73
2023/09/29 02:48:29;;;;;;;9.25;8.13;;;;;;;16.16;100.00;101520.22;4802513;29;20056;-76
2023/09/29 02:50:57;;;;;;;12.15;8.63;;;;;;;16.17;100.00;101518.31;4833557;29;20053;-76
2023/09/29 02:53:23;;;;;;;10.07;9.07;;;;;;;16.17;100.00;101521.03;4838711;29;20049;-77
2023/09/29 02:55:50;;;;;;;9.60;8.18;;;;;;;16.15;100.00;101521.31;4832933;29;20049;-75
2023/09/29 02:58:16;;;;;;;10.57;8.38;;;;;;;16.14;100.00;101518.91;4840022;29;20137;-76
2023/09/29 03:00:44;;;;;;;12.48;8.93;;;;;;;16.11;100.00;101512.97;4839355;29;20051;-77
2023/09/29 03:03:10;;;;;;;9.68;7.90;;;;;;;16.09;100.00;101512.44;4836471;29;20163;-76
2023/09/29 03:05:35;;;;;;;;;;;;;;;16.10;100.00;101514.06;4818685;29;20730;-75
2023/09/29 03:08:03;;;;;;;11.05;7.30;;;;;;;16.09;100.00;101531.38;4837396;29;20012;-76
2023/09/29 03:10:29;;;;;;;7.85;6.22;;;;;;;16.07;100.00;101528.16;4801621;29;20476;-76
2023/09/29 03:12:56;;;;;;;8.40;7.43;;;;;;;16.07;100.00;101528.16;4836119;29;20123;-75
2023/09/29 03:15:23;;;;;;;9.20;7.50;;;;;;;16.04;100.00;101507.09;4832469;29;20047;-76
2023/09/29 03:17:50;;;;;;;10.77;8.77;;;;;;;16.04;100.00;101509.81;4829847;29;20042;-76
2023/09/29 03:20:16;;;;;;;10.00;7.97;;;;;;;16.02;100.00;101508.50;4850663;29;20075;-75
2023/09/29 03:22:44;;;;;;;9.80;7.85;;;;;;;15.99;100.00;101509.06;4837620;29;20697;-74
2023/09/29 03:25:16;;;;;;;8.07;7.25;;;;;;;15.99;100.00;101509.06;4838655;29;20036;-74
2023/09/29 03:27:42;;;;;;;9.25;7.72;;;;;;;15.97;100.00;101498.53;4834454;29;20068;-76
2023/09/29 03:30:09;;;;;;;10.15;7.95;;;;;;;15.93;100.00;101502.91;4837921;29;20115;-73
2023/09/29 03:32:34;;;;;;;9.60;7.38;;;;;;;15.90;100.00;101499.97;4844148;29;20072;-76
2023/09/29 03:35:00;;;;;;;8.23;7.28;;;;;;;15.86;100.00;101491.66;4814193;29;20075;-75
2023/09/29 03:37:27;;;;;;;9.88;8.50;;;;;;;15.82;100.00;101493.31;4848050;29;20034;-79
2023/09/29 03:39:55;;;;;;;9.93;7.63;;;;;;;15.79;100.00;101489.28;4829485;29;20037;-78
2023/09/29 03:42:21;;;;;;;8.50;6.90;;;;;;;15.78;100.00;101489.56;4852693;29;20052;-80
2023/09/29 03:44:51;;;;;;;8.85;7.88;;;;;;;15.77;100.00;101485.25;4850150;29;20065;-79
2023/09/29 03:47:17;;;;;;;8.38;7.38;;;;;;;15.73;100.00;101484.22;4835905;29;20045;-79
2023/09/29 03:49:43;;;;;;;10.38;7.97;;;;;;;15.72;100.00;101488.81;4816971;29;20053;-78
2023/09/29 03:52:08;;;;;;;10.90;8.27;;;;;;;15.68;100.00;101487.78;4836274;29;20063;-79
2023/09/29 03:54:39;;;;;;;9.15;7.78;;;;;;;15.65;100.00;101490.25;4852488;29;20045;-75
2023/09/29 03:57:07;;;;;;;10.48;8.30;;;;;;;15.62;100.00;101482.72;4836733;29;20515;-78
2023/09/29 03:59:34;;;;;;;11.20;8.88;;;;;;;15.59;100.00;101472.47;4835214;29;20046;-75
2023/09/29 04:01:59;;;;;;;;;;;;;;;15.59;100.00;101475.16;4827531;29;20046;-79
2023/09/29 04:04:25;;;;;;;9.45;8.55;;;;;;;15.55;100.00;101483.00;4824422;29;19976;-75
2023/09/29 04:06:51;;;;;;;;;;;;;;;15.55;100.00;101488.41;4824863;29;20044;-74
2023/09/29 04:09:16;;;;;;;10.80;8.13;;;;;;;15.51;100.00;101481.97;4850517;29;20387;-77
2023/09/29 04:11:42;;;;;;;10.43;7.82;;;;;;;15.52;100.00;101468.19;4835212;29;20105;-76
2023/09/29 04:14:07;;;;;;;10.13;8.77;;;;;;;15.52;100.00;101472.78;4836610;29;20033;-77
2023/09/29 04:16:33;;;;;;;;;;;;;;;15.53;100.00;101480.59;4826864;29;20045;-77
2023/09/29 04:19:02;;;;;;;10.45;8.95;;;;;;;15.48;100.00;101464.44;4832103;29;20029;-76
2023/09/29 04:21:29;;;;;;;9.52;8.05;;;;;;;15.52;100.00;101470.91;4845125;29;20038;-77
2023/09/29 04:23:55;;;;;;;9.75;8.70;;;;;;;15.54;100.00;101470.63;4837573;29;20029;-75
2023/09/29 04:26:22;;;;;;;;;;;;;;;15.53;100.00;101469.81;4834779;29;20047;-76
2023/09/29 04:28:49;;;;;;;9.10;8.18;;;;;;;15.52;100.00;101467.41;4833119;29;19928;-76
2023/09/29 04:31:18;;;;;;;9.20;8.20;;;;;;;15.49;100.00;101457.16;4829117;29;20792;-75
2023/09/29 04:33:44;;;;;;;10.63;8.55;;;;;;;15.49;100.00;101457.97;4835685;29;20061;-77
2023/09/29 04:36:11;;;;;;;9.23;8.30;;;;;;;15.51;100.00;101466.59;4811563;29;20088;-76
2023/09/29 04:38:37;;;;;;;11.32;8.52;;;;;;;15.51;100.00;101465.75;4834687;29;20140;-79
2023/09/29 04:41:04;;;;;;;;;;;;;;;15.50;100.00;101459.56;4839299;29;20120;-76
2023/09/29 04:43:33;;;;;;;8.88;7.72;;;;;;;15.49;100.00;101463.34;4834269;29;19920;-79
2023/09/29 04:45:59;;;;;;;10.98;8.90;;;;;;;15.49;100.00;101446.34;4844860;29;20037;-74
2023/09/29 04:48:24;;;;;;;;;;;;;;;15.50;100.00;101456.88;4828866;29;20103;-76
2023/09/29 04:50:50;;;;;;;10.02;7.80;;;;;;;15.49;100.00;101451.75;4833416;29;19970;-78
2023/09/29 04:53:17;;;;;;;;;;;;;;;15.50;100.00;101459.56;4820132;29;20045;-77
2023/09/29 04:55:43;;;;;;;9.60;7.63;;;;;;;15.46;100.00;101449.63;4846027;29;20343;-72
2023/09/29 04:58:09;;;;;;;9.68;8.10;;;;;;;15.48;100.00;101456.34;4836661;29;20473;-77
2023/09/29 05:00:35;;;;;;;10.07;8.23;;;;;;;15.47;100.00;101452.03;4833522;29;20041;-78
2023/09/29 05:03:03;;;;;;;13.43;9.85;;;;;;;15.46;100.00;101450.44;4836856;29;20108;-76
2023/09/29 05:05:29;;;;;;;9.90;8.15;;;;;;;15.44;100.00;101452.59;4839212;29;20065;-75
2023/09/29 05:07:56;;;;;;;;;;;;;;;15.42;100.00;101454.78;4851514;29;20083;-78
2023/09/29 05:10:22;;;;;;;11.35;7.75;;;;;;;15.41;100.00;101453.19;4831971;29;19927;-75
2023/09/29 05:12:47;;;;;;;;;;;;;;;15.41;100.00;101445.09;4856235;29;20041;-76
2023/09/29 05:15:13;;;;;;;10.52;7.55;;;;;;;15.38;100.00;101445.66;4839046;29;19916;-78
2023/09/29 05:17:41;;;;;;;;;;;;;;;15.41;100.00;101446.97;4843543;29;20472;-77
2023/09/29 05:20:10;;;;;;;12.90;8.05;;;;;;;15.38;100.00;101451.06;4860619;29;19982;-77
2023/09/29 05:22:36;;;;;;;10.73;9.00;;;;;;;15.39;100.00;101439.19;4828894;29;20049;-75
2023/09/29 05:25:01;;;;;;;;;;;;;;;15.42;100.00;101440.50;4840312;29;20048;-78
2023/09/29 05:27:31;;;;;;;9.55;7.65;;;;;;;15.41;100.00;101437.00;4820804;29;19920;-75
2023/09/29 05:29:57;;;;;;;10.02;9.00;;;;;;;15.40;100.00;101443.47;4835138;29;20041;-77
2023/09/29 05:32:23;;;;;;;;;;;;;;;15.41;100.00;101445.09;4834527;29;20056;-76
2023/09/29 05:34:49;;;;;;;15.68;10.43;;;;;;;15.41;100.00;101452.38;4851344;29;19920;-76
2023/09/29 05:37:14;;;;;;;;;;;;;;;15.41;100.00;101447.78;4825285;29;20033;-77
2023/09/29 05:39:40;;;;;;;8.88;7.35;;;;;;;15.42;100.00;101456.69;4832153;29;20072;-75
2023/09/29 05:42:07;;;;;;;11.63;9.38;;;;;;;15.42;100.00;101452.09;4836352;29;20050;-76
2023/09/29 05:44:33;;;;;;;12.23;9.80;;;;;;;15.46;100.00;101453.16;4852729;29;20037;-78
2023/09/29 05:46:59;;;;;;;;;;;;;;;15.47;100.00;101454.75;4828021;29;20104;-77
2023/09/29 05:49:25;;;;;;;9.95;8.10;;;;;;;15.49;100.00;101440.97;4826793;29;20129;-75
2023/09/29 05:51:52;;;;;;;11.55;9.15;;;;;;;15.48;100.00;101436.66;4818698;29;20041;-77
2023/09/29 05:54:18;;;;;;;;;;;;;;;15.51;100.00;101434.19;4831364;29;20033;-76
2023/09/29 05:56:45;;;;;;;9.07;8.00;;;;;;;15.51;100.00;101422.56;4838941;29;19916;-75
2023/09/29 05:59:11;;;;;;;10.40;8.15;;;;;;;15.53;100.00;101432.00;4819637;29;20042;-78
2023/09/29 06:01:36;;;;;;;;;;;;;;;15.54;100.00;101427.41;4837777;29;20050;-76
2023/09/29 06:04:02;;;;;;;14.77;9.88;;;;;;;15.54;100.00;101430.91;4852500;29;19926;-75
2023/09/29 06:06:27;;;;;;;;;;;;;;;15.59;100.00;101440.06;4837155;29;20049;-77
2023/09/29 06:08:53;;;;;;;11.20;8.65;;;;;;;15.58;100.00;101450.06;4840572;29;19945;-77
2023/09/29 06:11:19;;;;;;;;;;;;;;;15.62;100.00;101444.91;4849489;29;20044;-74
2023/09/29 06:13:46;;;;;;;10.55;8.30;;;;;;;15.62;100.00;101439.50;4824818;29;20497;-78
2023/09/29 06:16:13;;;;;;;11.57;8.60;;;;;;;15.65;100.00;101433.56;4835629;29;20054;-76
2023/09/29 06:18:39;;;;;;;;;;;;;;;15.68;100.00;101441.06;4849806;29;20519;-74
2023/09/29 06:21:06;;;;;;;9.32;7.80;;;;;;;15.67;100.00;101432.16;4848997;29;19949;-78
2023/09/29 06:23:32;;;;;;;11.75;7.95;;;;;;;15.68;100.00;101432.97;4856438;29;20045;-76
2023/09/29 06:26:01;;;;;;;11.57;9.25;;;;;;;15.71;100.00;101427.78;4823524;29;20049;-77
2023/09/29 06:28:27;;;;;;;12.00;8.95;;;;;;;15.73;100.00;101424.81;4853266;29;20577;-77
2023/09/29 06:30:55;;;;;;;14.27;10.07;;;;;;;15.76;100.00;101424.22;4857088;29;20037;-75
2023/09/29 06:33:22;;;;;;;10.52;9.10;;;;;;;15.78;100.00;101428.28;4852234;29;20048;-77
2023/09/29 06:35:49;;;;;;;9.82;8.85;;;;;;;15.82;100.00;101429.28;4836971;29;20045;-78
2023/09/29 06:38:15;;;;;;;12.82;9.07;;;;;;;15.84;100.00;101426.28;4819727;29;20038;-75
2023/09/29 06:40:43;;;;;;;12.75;8.85;;;;;;;15.89;100.00;101428.94;4845251;29;20041;-73
2023/09/29 06:43:09;;;;;;;11.40;8.90;;;;;;;15.94;100.00;101420.78;4840684;29;20041;-77
2023/09/29 06:45:35;;;;;;;9.20;8.23;;;;;;;15.98;100.00;101429.09;4829450;29;20056;-79
2023/09/29 06:48:01;;;;;;;12.10;8.35;;;;;;;15.99;100.00;101419.94;4839343;29;20418;-79
2023/09/29 06:50:27;;;;;;;11.88;8.45;;;;;;;16.02;100.00;101430.94;4854878;29;20049;-78
2023/09/29 06:52:53;;;;;;;10.50;7.95;;;;;;;16.03;100.00;101427.16;4821381;29;20044;-78
2023/09/29 06:55:18;;;;;;;9.55;8.13;;;;;;;16.06;100.00;101426.59;4852229;29;20776;-76
2023/09/29 06:57:44;;;;;;;9.18;8.10;;;;;;;16.07;100.00;101421.97;4840311;29;20041;-76
2023/09/29 07:00:10;;;;;;;;;;;;;;;16.09;100.00;101423.28;4856059;29;20033;-79
2023/09/29 07:02:36;;;;;;;11.48;8.40;;;;;;;16.10;100.00;101433.00;4828823;29;19928;-74
2023/09/29 07:05:02;;;;;;;10.88;9.63;;;;;;;16.12;100.00;101435.41;4833876;29;20041;-77
2023/09/29 07:07:28;;;;;;;11.30;8.75;;;;;;;16.15;100.00;101436.75;4837905;29;20042;-78
2023/09/29 07:09:54;;;;;;;12.23;9.25;;;;;;;16.15;100.00;101442.16;4842332;29;20089;-79
2023/09/29 07:12:19;;;;;;;16.08;10.52;;;;;;;16.16;100.00;101439.16;4822710;29;20060;-77
2023/09/29 07:14:45;;;;;;;12.13;9.73;;;;;;;16.19;100.00;101438.59;4858190;29;20495;-77
2023/09/29 07:17:11;;;;;;;9.43;8.15;;;;;;;16.21;100.00;101432.88;4869357;29;20781;-76
2023/09/29 07:19:39;;;;;;;12.18;9.20;;;;;;;16.24;100.00;101433.09;4851964;29;20129;-74
2023/09/29 07:22:04;;;;;;;9.90;8.38;;;;;;;16.28;100.00;101430.63;4836067;29;20096;-79
2023/09/29 07:24:30;;;;;;;11.60;8.57;;;;;;;16.30;100.00;101426.53;4851399;29;20511;-77
2023/09/29 07:26:55;;;;;;;11.60;9.05;;;;;;;16.35;100.00;101422.97;4837266;29;20110;-79
2023/09/29 07:29:21;;;;;;;11.32;8.73;;;;;;;16.37;100.00;101428.88;4843880;29;20945;-78
2023/09/29 07:31:48;;;;;;;13.45;9.52;;;;;;;16.43;100.00;101427.69;4848298;29;20057;-75
2023/09/29 07:34:15;;;;;;;11.63;9.48;;;;;;;16.50;100.00;101433.53;4837879;29;20514;-79
2023/09/29 07:36:44;;;;;;;13.48;9.25;;;;;;;16.56;100.00;101435.09;4835599;29;20041;-78
2023/09/29 07:39:13;;;;;;;12.90;10.00;;;;;;;16.61;100.00;101428.81;4816146;29;20037;-76
2023/09/29 07:41:39;;;;;;;13.07;9.85;;;;;;;16.64;100.00;101429.00;4827883;29;20505;-75
2023/09/29 07:44:06;;;;;;;11.40;8.95;;;;;;;16.68;100.00;101436.56;4842991;29;20048;-73
2023/09/29 07:46:31;;;;;;;10.85;8.75;;;;;;;16.71;100.00;101442.19;4849945;29;20312;-72
2023/09/29 07:48:57;;;;;;;11.40;8.90;;;;;;;16.72;100.00;101443.00;4848592;29;20507;-73
2023/09/29 07:51:24;;;;;;;10.98;8.63;;;;;;;16.76;100.00;101449.44;4833497;29;20077;-71
2023/09/29 07:53:51;;;;;;;13.73;8.50;;;;;;;16.76;100.00;101452.13;4839305;29;20041;-73
2023/09/29 07:56:16;;;;;;;10.68;8.60;;;;;;;16.76;100.00;101446.72;4848336;29;20034;-72
2023/09/29 07:58:42;;;;;;;10.57;7.93;;;;;;;16.78;100.00;101447.22;4857650;29;20033;-73
2023/09/29 08:01:08;;;;;;;11.90;8.75;;;;;;;16.81;100.00;101452.88;4844816;29;20037;-74
2023/09/29 08:03:34;;;;;;;10.38;6.90;;;;;;;16.85;100.00;101455.78;4841657;29;20037;-72
2023/09/29 08:06:00;;;;;;;10.38;8.45;;;;;;;16.88;100.00;101466.84;4848846;29;20093;-73
2023/09/29 08:08:26;;;;;;;10.85;7.07;;;;;;;16.94;100.00;101469.47;4833679;29;20042;-73
2023/09/29 08:10:52;;;;;;;10.70;7.80;;;;;;;16.97;100.00;101464.25;4857913;29;20603;-72
2023/09/29 08:13:18;;;;;;;10.70;7.20;;;;;;;17.04;100.00;101464.69;4852145;29;20049;-73
2023/09/29 08:15:45;;;;;;;8.73;7.30;;;;;;;17.06;100.00;101459.75;4836709;29;20528;-73
2023/09/29 08:18:11;;;;;;;10.70;7.90;;;;;;;17.09;100.00;101461.91;4854362;29;20042;-73
2023/09/29 08:20:37;;;;;;;10.82;7.80;;;;;;;17.13;100.00;101481.03;4832806;29;20042;-73
2023/09/29 08:23:02;;;;;;;12.45;7.70;;;;;;;17.18;100.00;101475.53;4840556;29;20519;-72
2023/09/29 08:25:29;;;;;;;10.52;6.90;;;;;;;17.18;100.00;101454.69;4864622;29;20116;-73
2023/09/29 08:27:56;;;;;;;12.43;7.80;;;;;;;17.19;100.00;101456.31;4835969;29;20043;-73
2023/09/29 08:30:22;;;;;;;10.95;7.78;;;;;;;17.23;100.00;101455.72;4853829;29;21037;-73
2023/09/29 08:32:48;;;;;;;12.68;8.13;;;;;;;17.24;100.00;101460.03;4847158;29;20055;-72
2023/09/29 08:35:15;;;;;;;11.93;7.68;;;;;;;17.28;100.00;101458.34;4812067;29;20041;-72
2023/09/29 08:37:43;;;;;;;12.07;8.38;;;;;;;17.32;100.00;101464.75;4835297;29;20050;-73
2023/09/29 08:40:10;;;;;;;8.95;7.95;;;;;;;17.35;100.00;101446.03;4829733;29;20033;-73
2023/09/29 08:42:37;;;;;;;9.90;6.80;;;;;;;17.40;100.00;101434.28;4833781;29;20133;-72
2023/09/29 08:45:11;;;;;;;11.75;7.85;;;;;;;17.43;100.00;101439.94;4850781;29;20053;-73
2023/09/29 08:47:38;;;;;;;10.27;8.05;;;;;;;17.51;99.88;101448.47;4873855;29;20038;-72
2023/09/29 08:50:06;;;;;;;10.38;8.05;;;;;;;17.56;100.00;101454.59;4841218;29;20049;-76
2023/09/29 08:52:35;;;;;;;10.80;8.32;;;;;;;17.61;99.23;101445.53;4838813;29;20101;-77
2023/09/29 08:55:03;;;;;;;12.02;7.45;;;;;;;17.63;98.46;101454.19;4823675;29;20061;-78
2023/09/29 08:57:29;;;;;;;10.15;8.30;;;;;;;17.73;98.80;101446.69;4854133;29;20123;-78
2023/09/29 08:59:55;;;;;;;9.45;6.68;;;;;;;17.84;98.64;101441.09;4841651;29;20396;-76
2023/09/29 09:02:24;;;;;;;9.43;6.97;;;;;;;17.98;98.40;101436.47;4835608;29;20037;-77
2023/09/29 09:04:50;;;;;;;9.60;7.32;;;;;;;18.16;98.01;101438.25;4858437;29;20045;-75
2023/09/29 09:07:17;;;;;;;9.05;7.53;;;;;;;18.33;97.85;101434.09;4851736;29;20086;-76
2023/09/29 09:09:53;;;;;;;9.45;6.63;;;;;;;18.43;96.69;101431.97;4828154;29;20781;-75
2023/09/29 09:12:18;;;;;;;8.90;6.63;;;;;;;18.52;95.51;101423.91;4833854;29;20536;-75
2023/09/29 09:14:47;;;;;;;9.75;6.57;;;;;;;18.57;95.57;101423.00;4839743;29;20076;-74
2023/09/29 09:17:14;;;;;;;9.13;6.55;;;;;;;18.64;96.06;101439.66;4838078;29;20040;-76
2023/09/29 09:19:51;;;;;;;9.02;6.53;;;;;;;18.71;94.94;101445.47;4853968;29;20073;-75
2023/09/29 09:22:26;;;;;;;8.88;6.70;;;;;;;18.79;94.72;101448.25;4819215;29;20045;-77
2023/09/29 09:25:12;;;;;;;12.38;6.47;;;;;;;18.87;93.80;101459.47;4833476;29;20049;-74
2023/09/29 09:27:40;;;;;;;7.63;4.93;;;;;;;18.94;94.11;101444.38;4846800;29;20145;-77
2023/09/29 09:30:19;;;;;;;7.82;5.45;;;;;;;18.99;92.58;101443.44;4821652;29;20054;-76
2023/09/29 09:32:46;;;;;;;7.57;4.75;;;;;;;19.04;92.77;101432.47;4812251;29;20088;-78
2023/09/29 09:35:23;;;;;;;6.70;5.38;;;;;;;19.05;92.80;101426.72;4837727;29;20053;-77
2023/09/29 09:37:51;;;;;;;5.25;4.20;;;;;;;19.07;91.75;101410.13;4834796;29;20030;-77
2023/09/29 09:40:18;;;;;;;6.57;4.43;;;;;;;19.08;91.49;101403.59;4835809;29;20052;-75
2023/09/29 09:42:49;;;;;;;7.20;4.28;;;;;;;19.12;93.19;101420.88;4851688;29;20659;-77
2023/09/29 09:45:14;;;;;;;7.20;4.60;;;;;;;19.11;94.08;101426.63;4855083;29;20587;-77
2023/09/29 09:47:41;;;;;;;4.90;3.92;;;;;;;19.07;93.17;101404.69;4839091;29;20162;-74
2023/09/29 09:50:11;;;;;;;5.72;4.18;;;;;;;19.04;93.11;101411.56;4837338;29;20041;-74
2023/09/29 09:52:39;;;;;;;5.00;3.90;;;;;;;19.01;91.59;101406.72;4857314;29;20050;-76
2023/09/29 09:55:11;;;;;;;5.13;4.00;;;;;;;18.99;91.90;101413.59;4846431;29;20044;-72
2023/09/29 09:57:38;;;;;;;6.55;3.95;;;;;;;18.98;92.99;101412.78;4844649;29;20124;-75
2023/09/29 10:00:12;;;;;;;7.10;4.78;;;;;;;18.98;94.68;101422.84;4843833;29;20036;-74
2023/09/29 10:02:51;;;;;;;6.60;4.45;;;;;;;18.94;94.32;101421.84;4844470;29;20049;-75
2023/09/29 10:05:30;;;;;;;6.47;4.10;;;;;;;18.93;93.95;101409.41;4819486;29;20061;-77
2023/09/29 10:08:02;;;;;;;6.05;3.50;;;;;;;18.94;93.73;101411.81;4860893;29;20037;-74
2023/09/29 10:10:34;;;;;;;;;;;;;;;18.95;96.82;101407.97;4858830;29;20144;-73
2023/09/29 10:13:03;;;;;;;8.63;3.70;;;;;;;18.90;94.32;101399.97;4833019;29;19981;-73
2023/09/29 10:15:29;;;;;;;5.53;3.78;;;;;;;18.95;94.80;101399.03;4851307;29;20050;-75
2023/09/29 10:17:57;;;;;;;6.35;3.80;;;;;;;18.96;94.85;101403.34;4833050;29;20037;-76
2023/09/29 10:20:26;;;;;;;6.20;3.35;;;;;;;18.98;95.20;101406.56;4851747;29;20269;-74
2023/09/29 10:23:06;;;;;;;6.50;3.53;;;;;;;19.02;94.70;101396.69;4844366;29;20041;-74
2023/09/29 10:25:36;;;;;;;4.97;4.10;;;;;;;19.02;94.24;101392.03;4819678;29;20048;-74
2023/09/29 10:28:06;;;;;;;5.57;3.58;;;;;;;19.02;93.86;101397.47;4824746;29;20045;-76
2023/09/29 10:30:33;;;;;;;5.22;3.78;;;;;;;19.02;93.60;101386.63;4858274;29;20056;-74
2023/09/29 10:33:07;;;;;;;4.72;3.28;;;;;;;19.03;92.41;101376.56;4832125;29;20153;-76
2023/09/29 10:35:45;;;;;;;6.38;3.70;;;;;;;19.05;92.25;101379.78;4828105;29;20128;-73
2023/09/29 10:38:22;;;;;;;6.22;3.95;;;;;;;19.06;92.12;101375.94;4853415;29;20036;-74
2023/09/29 10:40:48;;;;;;;4.63;3.47;;;;;;;19.05;91.21;101380.59;4841401;29;20037;-73
2023/09/29 10:43:26;;;;;;;6.57;3.85;;;;;;;19.06;90.01;101371.31;4833973;29;20039;-73
2023/09/29 10:45:53;;;;;;;5.90;3.60;;;;;;;19.10;91.20;101376.91;4841468;29;20043;-75
2023/09/29 10:48:23;;;;;;;5.45;3.72;;;;;;;19.13;93.16;101368.16;4836741;29;20037;-75
2023/09/29 10:50:51;;;;;;;5.55;4.03;;;;;;;19.18;95.94;101384.31;4841580;29;20407;-76
2023/09/29 10:53:21;;;;;;;4.80;3.80;;;;;;;19.23;94.58;101386.88;4847776;29;20042;-76
2023/09/29 10:55:49;;;;;;;5.53;3.80;;;;;;;19.30;95.79;101387.25;4838002;29;20081;-77
2023/09/29 10:58:17;;;;;;;6.47;4.20;;;;;;;19.38;94.55;101382.19;4834409;29;20034;-76
2023/09/29 11:00:48;;;;;;;5.32;3.80;;;;;;;19.43;93.22;101374.69;4822618;29;20048;-74
2023/09/29 11:03:20;;;;;;;6.63;3.70;;;;;;;19.53;90.71;101373.59;4856388;29;20041;-74
2023/09/29 11:05:58;;;;;;;5.40;3.60;;;;;;;19.65;90.47;101373.03;4850966;29;20520;-76
2023/09/29 11:08:34;;;;;;;7.05;3.85;;;;;;;19.89;89.54;101374.22;4829991;29;20076;-74
2023/09/29 11:11:06;;;;;;;5.53;3.40;;;;;;;19.95;88.29;101363.19;4832782;29;20045;-75
2023/09/29 11:13:33;;;;;;;5.90;3.40;;;;;;;19.95;85.93;101355.03;4834164;29;20684;-74
2023/09/29 11:16:00;;;;;;;8.45;3.75;;;;;;;19.97;87.54;101360.94;4834242;29;20040;-72
2023/09/29 11:18:33;;;;;;;6.22;3.65;;;;;;;19.99;88.20;101351.38;4819710;29;20135;-76
2023/09/29 11:21:04;;;;;;;5.07;3.35;;;;;;;20.03;88.70;101346.88;4856107;29;20101;-77
2023/09/29 11:23:49;;;;;;;5.15;3.20;;;;;;;20.13;89.30;101343.06;4843457;29;20063;-74
2023/09/29 11:26:16;;;;;;;5.10;3.67;;;;;;;20.16;87.52;101347.84;4848300;29;20056;-72